LEVXLEST

Guest
Details From LEVX - Vigo
To LEST - Santiago
Flight Number -
Tags Routegen Generated
Created
Modified
Stats Distance 41 nm / 76 km
Max Altitude 100 ft / 30 m
Waypoints 5
Social Downloads 12
Likes 0
Share

Download

Looking for another format? Having issues loading an existing format? Contact us
Advertisement - Login to hide

Notes

Departing runway 1 LEVX. Arriving runway 16 LEST.

Route

LEVX +42.31_-008.60 +42.53_-008.48 +42.74_-008.36 LEST

ID Type Via Altitude (ft/m) Position (lat/lon) Dist (leg/tot) Name
O LEVX APT - 100 / 30 42.24250 / -8.62389 - / 0 nm
+42.31_-008.60 DME - 100 / 30 42.31344 / -8.60458 4 / 4 nm
+42.53_-008.48 DME - 100 / 30 42.52840 / -8.48400 13 / 18 nm
+42.74_-008.36 DME - 100 / 30 42.74335 / -8.36343 13 / 32 nm
O LEST APT - 0 / 0 42.88382 / -8.41095 8 / 40 nm

Altitude Profile

Advertisement - Login to hide

LEVX

Details ICAO LEVX (VGO)
Name Vigo-Peinador
Region Spain
Timezone Europe/Madrid (UTC+2.0)
Stats Elevation 856 ft / 261 m (AMSL)
Location 42.232000° -8.626750°
Runways 1
Magnetic Variation 1.891° W

METAR

LEVX 271330Z VRB01KT 9999 FEW023 BKN029 20/14 Q1023 NOSIG

Decode

TAF

TAF LEVX 271100Z 2712/2812 30007KT 9999 FEW020 SCT025 TX19/2714Z TN11/2806Z

Decode

Departure Runways

ID Width Length Bearing (true/mag) Surface Threshold Overrun Markings Lighting
01 148 ft / 45 m 7,833 ft / 2,387 m 11.39° / 13.28° ASPHALT 0 ft / 0 m 0 ft / 0 m PREC-APP CENTERLINE EDGE THRESHOLD REIL-OMNI
19 148 ft / 45 m 7,833 ft / 2,387 m 191.40° / 193.29° ASPHALT 0 ft / 0 m 0 ft / 0 m PREC-APP CENTERLINE EDGE THRESHOLD CALVERT-ILS TDZ REIL-OMNI

LEST

Details ICAO LEST (SCQ)
Name Santiago-Rosalía de Castro
Region Spain
Timezone Europe/Madrid (UTC+2.0)
Stats Elevation 1,211 ft / 369 m (AMSL)
Location 42.897800° -8.415640°
Runways 1
Magnetic Variation 1.867° W

METAR

LEST 271330Z 34006KT 290V010 9999 SCT034 18/10 Q1024 NOSIG

Decode

TAF

TAF LEST 271100Z 2712/2812 36007KT 9999 SCT020 TX17/2714Z TN09/2806Z

Decode

Destination Runways

ID Width Length Bearing (true/mag) Surface Threshold Overrun Markings Lighting
17 148 ft / 45 m 10,488 ft / 3,197 m 166.20° / 168.07° ASPHALT 377 ft / 115 m 210 ft / 64 m PREC-APP CENTERLINE EDGE THRESHOLD ALSF-II TDZ REIL-OMNI
35 148 ft / 45 m 10,488 ft / 3,197 m 346.21° / 348.07° ASPHALT 463 ft / 141 m 112 ft / 34 m PREC-APP CENTERLINE EDGE THRESHOLD SALS REIL-OMNI

Approach Navaids

Runway Type Ident Frequency Range Bearing (true/mag) Slope Elevation
17 DME IGO 110.30 MHz 18 nm / 33 km - - 1,171 ft / 357 m (AMSL)
17 GS IGO 110.30 MHz 10 nm / 19 km 166.09° / 167.96 ° 3.00° 1,171 ft / 357 m (AMSL)
17 LOC-ILS IGO 110.30 MHz 18 nm / 33 km 166.06° / 167.93 ° - 1,171 ft / 357 m (AMSL)
35 LOC-ILS ISO 111.50 MHz 18 nm / 33 km 346.20° / 348.06 ° - 1,197 ft / 365 m (AMSL)
35 GS ISO 111.50 MHz 10 nm / 19 km 346.09° / 347.96 ° 3.00° 1,196 ft / 365 m (AMSL)
35 DME ISO 111.50 MHz 18 nm / 33 km - - 1,196 ft / 365 m (AMSL)

Popular Alternatives